Time;durP1;ratioP1;P1;durP2;ratioP2;P2;SDS_P1;SDS_P2;PMS_P1;PMS_P2;Temp;Humidity;BMP_temperature;BMP_pressure;BME280_temperature;BME280_humidity;BME280_pressure;Samples;Min_cycle;Max_cycle;Signal;HPM_P1;HPM_P2
2022/04/21 00:01:04;;;;;;;2.50;2.30;;;13.30;1.00;;;;;;5065294;28;21147;-78
2022/04/21 00:03:32;;;;;;;2.87;2.50;;;13.20;1.00;;;;;;5064802;28;20473;-80
2022/04/21 00:06:00;;;;;;;2.83;2.20;;;13.20;1.00;;;;;;5065585;28;20456;-79
2022/04/21 00:08:28;;;;;;;2.87;2.33;;;13.20;1.00;;;;;;5066792;28;20464;-79
2022/04/21 00:10:58;;;;;;;6.23;2.67;;;13.20;1.00;;;;;;5063782;28;20528;-80
2022/04/21 00:13:26;;;;;;;2.03;1.83;;;13.20;1.00;;;;;;5067125;28;20452;-80
2022/04/21 00:15:54;;;;;;;2.20;2.00;;;13.20;1.00;;;;;;5062818;28;20464;-79
2022/04/21 00:18:22;;;;;;;2.50;2.20;;;13.20;1.00;;;;;;5065274;28;20844;-78
2022/04/21 00:20:50;;;;;;;2.70;2.50;;;13.10;1.00;;;;;;5058676;28;20543;-79
2022/04/21 00:26:05;;;;;;;1.80;1.70;;;13.30;1.00;;;;;;5052395;28;20554;-79
2022/04/21 00:28:33;;;;;;;3.93;2.47;;;13.00;1.00;;;;;;5060908;28;20454;-79
2022/04/21 00:31:03;;;;;;;3.43;3.13;;;13.00;1.00;;;;;;5062484;28;20466;-78
2022/04/21 00:33:31;;;;;;;2.00;1.80;;;13.00;1.00;;;;;;5096512;27;20449;-79
2022/04/21 00:35:59;;;;;;;2.50;2.30;;;12.90;1.00;;;;;;5059999;28;20452;-79
2022/04/21 00:38:27;;;;;;;2.97;2.43;;;12.90;1.00;;;;;;5068892;28;20454;-79
2022/04/21 00:40:55;;;;;;;2.10;2.00;;;12.90;1.00;;;;;;5059902;28;20602;-81
2022/04/21 00:43:25;;;;;;;2.37;2.27;;;12.90;1.00;;;;;;5061262;28;21075;-81
2022/04/21 00:45:55;;;;;;;2.93;2.70;;;12.90;1.00;;;;;;5060131;28;20472;-77
2022/04/21 00:48:24;;;;;;;3.80;2.47;;;12.80;1.00;;;;;;5057149;28;20489;-80
2022/04/21 00:50:55;;;;;;;3.70;2.27;;;12.80;1.00;;;;;;5059829;28;20463;-78
2022/04/21 00:53:23;;;;;;;2.80;2.60;;;12.80;1.00;;;;;;5062202;28;20447;-81
2022/04/21 00:55:52;;;;;;;2.50;2.30;;;12.80;1.00;;;;;;5063557;28;20451;-78
2022/04/21 00:58:21;;;;;;;2.70;2.40;;;12.80;1.00;;;;;;5061221;28;20463;-78
2022/04/21 01:00:51;;;;;;;4.93;3.30;;;12.80;1.00;;;;;;5064059;28;20488;-83
2022/04/21 01:03:19;;;;;;;2.50;2.20;;;12.80;1.00;;;;;;5056412;28;20472;-78
2022/04/21 01:05:49;;;;;;;2.90;2.70;;;12.70;1.00;;;;;;5059447;28;20493;-77
2022/04/21 01:08:17;;;;;;;2.80;2.60;;;12.70;1.00;;;;;;5062328;28;20475;-79
2022/04/21 01:10:47;;;;;;;2.77;2.57;;;12.70;1.00;;;;;;5062237;28;20455;-80
2022/04/21 01:13:16;;;;;;;2.33;1.80;;;12.60;1.00;;;;;;5063854;28;20985;-81
2022/04/21 01:15:45;;;;;;;2.57;2.37;;;12.60;1.00;;;;;;5060716;28;20469;-79
2022/04/21 01:18:15;;;;;;;2.20;2.00;;;12.60;1.00;;;;;;5062838;28;20492;-80
2022/04/21 01:20:44;;;;;;;3.30;3.00;;;12.60;1.00;;;;;;5054413;28;20447;-82
2022/04/21 01:23:13;;;;;;;2.87;2.67;;;12.60;1.00;;;;;;5064957;28;20475;-78
2022/04/21 01:25:42;;;;;;;4.20;2.73;;;12.50;1.00;;;;;;5059807;28;20455;-77
2022/04/21 01:28:11;;;;;;;2.67;2.47;;;12.60;1.00;;;;;;5069843;28;20470;-81
2022/04/21 01:30:39;;;;;;;1.90;1.80;;;12.50;1.00;;;;;;5064957;28;20496;-78
2022/04/21 01:33:08;;;;;;;4.77;2.73;;;12.50;1.00;;;;;;5065078;28;20447;-78
2022/04/21 01:35:36;;;;;;;2.93;2.37;;;12.50;1.00;;;;;;5063761;28;20502;-80
2022/04/21 01:41:11;;;;;;;2.83;2.53;;;12.40;1.00;;;;;;5062564;28;20446;-79
2022/04/21 01:43:43;;;;;;;2.63;2.43;;;12.30;1.00;;;;;;5058906;28;20480;-79
2022/04/21 01:46:11;;;;;;;3.83;2.87;;;12.20;1.00;;;;;;5063206;28;20450;-80
2022/04/21 01:48:40;;;;;;;3.13;2.80;;;12.20;1.00;;;;;;5066210;28;22635;-83
2022/04/21 01:51:08;;;;;;;3.40;3.10;;;12.10;1.00;;;;;;5068107;28;20443;-79
2022/04/21 01:53:37;;;;;;;2.60;2.40;;;12.20;1.00;;;;;;5060034;28;20940;-77
2022/04/21 01:56:06;;;;;;;2.20;2.10;;;12.20;1.00;;;;;;5064990;28;20488;-79
2022/04/21 01:58:34;;;;;;;4.40;3.60;;;12.10;1.00;;;;;;5062855;28;20459;-76
2022/04/21 02:01:02;;;;;;;3.70;2.60;;;12.10;1.00;;;;;;5064561;28;20442;-79
2022/04/21 02:03:32;;;;;;;4.27;2.90;;;12.10;1.00;;;;;;5078073;28;20893;-78
2022/04/21 02:06:01;;;;;;;3.10;2.90;;;12.10;1.00;;;;;;5060233;28;20478;-77
2022/04/21 02:08:29;;;;;;;3.20;2.53;;;12.10;1.00;;;;;;5062341;28;20466;-78
2022/04/21 02:10:58;;;;;;;3.07;2.80;;;12.00;1.00;;;;;;5063740;28;21019;-80
2022/04/21 02:13:26;;;;;;;4.07;3.00;;;12.10;1.00;;;;;;5060631;28;20440;-79
2022/04/21 02:15:55;;;;;;;3.60;3.00;;;12.00;1.00;;;;;;5064689;28;20451;-78
2022/04/21 02:18:23;;;;;;;3.77;3.47;;;12.00;1.00;;;;;;5061527;28;20459;-82
2022/04/21 02:20:51;;;;;;;3.00;2.80;;;12.00;1.00;;;;;;5060973;28;20465;-81
2022/04/21 02:23:19;;;;;;;3.47;3.17;;;12.00;1.00;;;;;;5060440;28;20544;-83
2022/04/21 02:25:47;;;;;;;3.80;3.50;;;12.00;1.00;;;;;;5060482;28;20452;-79
2022/04/21 02:28:17;;;;;;;3.50;3.13;;;11.90;1.00;;;;;;5066430;28;20485;-79
2022/04/21 02:30:45;;;;;;;3.33;3.07;;;11.90;1.00;;;;;;5064633;28;20463;-79
2022/04/21 02:33:13;;;;;;;3.33;3.03;;;11.80;1.00;;;;;;5060226;28;21143;-81
2022/04/21 02:35:41;;;;;;;5.17;3.30;;;11.80;1.00;;;;;;5055314;28;20964;-81
2022/04/21 02:38:10;;;;;;;4.50;3.13;;;12.00;1.00;;;;;;5094903;28;20478;-79
2022/04/21 02:40:38;;;;;;;3.80;3.50;;;11.70;1.00;;;;;;5059505;28;20954;-80
2022/04/21 02:43:08;;;;;;;4.47;3.97;;;11.70;1.00;;;;;;5061661;28;20454;-79
2022/04/21 02:45:38;;;;;;;5.23;3.53;;;11.70;1.00;;;;;;5060467;28;20471;-79
2022/04/21 02:48:07;;;;;;;4.63;3.57;;;11.70;1.00;;;;;;5068286;28;20458;-80
2022/04/21 02:50:36;;;;;;;6.60;3.70;;;11.70;1.00;;;;;;5062480;28;20470;-79
2022/04/21 02:53:04;;;;;;;4.50;4.10;;;11.70;1.00;;;;;;5064958;28;20473;-79
2022/04/21 02:58:20;;;;;;;3.80;3.50;;;11.70;1.00;;;;;;5063077;28;20482;-81
2022/04/21 03:00:50;;;;;;;5.20;4.23;;;11.70;1.00;;;;;;5063690;28;20498;-79
2022/04/21 03:03:18;;;;;;;4.07;3.70;;;11.70;1.00;;;;;;5060935;28;20458;-79
2022/04/21 03:05:47;;;;;;;7.07;4.13;;;11.80;1.00;;;;;;5089823;28;20496;-80
2022/04/21 03:08:15;;;;;;;4.90;4.10;;;11.80;1.00;;;;;;5059383;28;21022;-80
2022/04/21 03:10:43;;;;;;;4.13;3.83;;;11.70;1.00;;;;;;5059665;28;20462;-81
2022/04/21 03:13:11;;;;;;;4.83;4.50;;;11.60;1.00;;;;;;5058981;28;20458;-80
2022/04/21 03:15:39;;;;;;;5.20;4.70;;;11.60;1.00;;;;;;5054310;28;20459;-79
2022/04/21 03:18:09;;;;;;;4.83;4.13;;;11.60;1.00;;;;;;5053104;28;20471;-81
2022/04/21 03:26:14;;;;;;;5.07;4.03;;;11.50;1.00;;;;;;5059358;28;20465;-79
2022/04/21 03:28:42;;;;;;;4.20;3.80;;;11.50;1.00;;;;;;5061414;28;20949;-80
2022/04/21 03:31:10;;;;;;;5.00;4.50;;;11.50;1.00;;;;;;5059890;28;20851;-78
2022/04/21 03:33:40;;;;;;;5.20;4.80;;;11.50;1.00;;;;;;5059954;28;20448;-80
2022/04/21 03:36:09;;;;;;;4.40;4.00;;;11.40;1.00;;;;;;5057555;28;20454;-79
2022/04/21 03:38:39;;;;;;;5.97;5.00;;;11.40;1.00;;;;;;5065249;28;20450;-80
2022/04/21 03:41:07;;;;;;;4.77;4.37;;;11.40;1.00;;;;;;5071551;28;20455;-79
2022/04/21 03:43:35;;;;;;;5.13;4.40;;;11.40;1.00;;;;;;5067875;28;20455;-79
2022/04/21 03:46:03;;;;;;;5.00;4.53;;;11.40;1.00;;;;;;5060164;28;20484;-79
2022/04/21 03:48:32;;;;;;;5.27;4.77;;;11.40;1.00;;;;;;5065877;28;20526;-80
2022/04/21 03:51:01;;;;;;;4.77;4.27;;;11.40;1.00;;;;;;5066978;28;20435;-80
2022/04/21 03:53:30;;;;;;;6.00;5.50;;;11.50;1.00;;;;;;5063443;28;20499;-79
2022/04/21 03:55:58;;;;;;;5.47;4.97;;;11.50;1.00;;;;;;5064090;28;20444;-77
2022/04/21 03:58:27;;;;;;;5.53;5.07;;;11.50;1.00;;;;;;5065411;28;20454;-79
2022/04/21 04:00:55;;;;;;;5.30;4.87;;;11.50;1.00;;;;;;5064871;28;20458;-82
2022/04/21 04:03:23;;;;;;;5.13;4.57;;;11.50;1.00;;;;;;5067260;28;20476;-81
2022/04/21 04:05:51;;;;;;;5.77;4.17;;;11.40;1.00;;;;;;5057220;28;20827;-80
2022/04/21 04:11:14;;;;;;;4.37;3.97;;;11.60;1.00;;;;;;5049991;28;20469;-80
2022/04/21 04:13:43;;;;;;;4.40;4.00;;;11.30;1.00;;;;;;5066497;28;20447;-81
2022/04/21 04:16:11;;;;;;;4.47;4.07;;;11.60;1.00;;;;;;5062945;28;20450;-80
2022/04/21 04:18:39;;;;;;;4.97;4.50;;;11.30;1.00;;;;;;5067946;28;20460;-80
2022/04/21 04:21:10;;;;;;;5.40;3.87;;;11.20;1.00;;;;;;5059547;28;20450;-79
2022/04/21 04:23:39;;;;;;;5.30;4.33;;;11.20;1.00;;;;;;5065488;28;20459;-80
2022/04/21 04:26:07;;;;;;;5.80;4.50;;;11.30;1.00;;;;;;5073115;28;20857;-80
2022/04/21 04:28:36;;;;;;;4.80;4.40;;;11.40;1.00;;;;;;5061801;28;20857;-79
2022/04/21 04:31:04;;;;;;;9.80;4.97;;;11.60;1.00;;;;;;5066465;28;20530;-79
2022/04/21 04:33:33;;;;;;;5.27;4.87;;;11.60;1.00;;;;;;5062245;28;20572;-80
2022/04/21 04:36:01;;;;;;;5.80;5.30;;;11.40;1.00;;;;;;5066619;28;20530;-79
2022/04/21 04:38:29;;;;;;;9.50;4.77;;;11.30;1.00;;;;;;5067762;28;20459;-80
2022/04/21 04:42:16;;;;;;;5.60;5.10;;;11.40;1.00;;;;;;5066054;28;20460;-79
2022/04/21 04:43:47;;;;;;;5.03;4.37;;;11.10;1.00;;;;;;5064509;28;20461;-79
2022/04/21 04:49:01;;;;;;;5.00;4.50;;;10.90;1.00;;;;;;5057533;28;20461;-79
2022/04/21 04:51:29;;;;;;;6.67;4.50;;;10.90;1.00;;;;;;5062559;28;20463;-80
2022/04/21 04:53:57;;;;;;;6.43;4.80;;;10.80;1.00;;;;;;5063319;28;20831;-78
2022/04/21 04:56:28;;;;;;;9.40;4.60;;;10.80;1.00;;;;;;5058207;28;20483;-79
2022/04/21 04:58:57;;;;;;;6.10;4.27;;;10.80;1.00;;;;;;5066319;28;20469;-78
2022/04/21 05:01:30;;;;;;;5.23;4.53;;;10.80;1.00;;;;;;5066948;28;20462;-79
2022/04/21 05:04:03;;;;;;;4.80;3.80;;;10.80;1.00;;;;;;5064140;28;20554;-79
2022/04/21 05:06:35;;;;;;;5.00;4.50;;;10.80;1.00;;;;;;5066199;28;20474;-80
2022/04/21 05:09:04;;;;;;;13.83;6.73;;;10.70;1.00;;;;;;5064664;28;20465;-79
2022/04/21 05:11:34;;;;;;;5.45;4.95;;;10.70;1.00;;;;;;5074207;28;20434;-80
2022/04/21 05:14:03;;;;;;;5.00;4.50;;;10.70;1.00;;;;;;5069892;28;20196;-79
2022/04/21 05:16:31;;;;;;;5.57;4.93;;;10.80;1.00;;;;;;5071937;28;20489;-79
2022/04/21 05:19:00;;;;;;;4.30;3.90;;;10.90;1.00;;;;;;5073247;28;20478;-80
2022/04/21 05:21:30;;;;;;;4.47;4.07;;;10.90;1.00;;;;;;5073932;28;20454;-79
2022/04/21 05:23:59;;;;;;;5.90;5.28;;;11.00;1.00;;;;;;5070607;28;20484;-80
2022/04/21 05:26:28;;;;;;;5.53;4.00;;;11.10;1.00;;;;;;5073453;28;20224;-80
2022/04/21 05:29:00;;;;;;;5.40;4.27;;;11.00;1.00;;;;;;5061038;28;20447;-78
2022/04/21 05:31:27;;;;;;;4.50;4.10;;;10.90;1.00;;;;;;5060700;28;20443;-78
2022/04/21 05:33:57;;;;;;;4.20;3.60;;;10.90;1.00;;;;;;5070249;28;20460;-79
2022/04/21 05:36:26;;;;;;;6.90;4.77;;;11.00;1.00;;;;;;5069645;28;20469;-79
2022/04/21 05:38:55;;;;;;;4.67;4.13;;;11.00;1.00;;;;;;5067220;28;20462;-80
2022/04/21 05:41:24;;;;;;;5.60;4.33;;;11.00;1.00;;;;;;5069760;28;20473;-79
2022/04/21 05:43:53;;;;;;;7.47;5.17;;;11.00;1.00;;;;;;5069861;28;20520;-79
2022/04/21 05:46:23;;;;;;;6.13;5.50;;;11.00;1.00;;;;;;5064271;28;20489;-80
2022/04/21 05:48:52;;;;;;;5.80;5.30;;;11.10;1.00;;;;;;5070610;28;20450;-78
2022/04/21 05:51:21;;;;;;;7.43;5.87;;;11.10;1.00;;;;;;5062613;28;20464;-81
2022/04/21 05:53:50;;;;;;;7.67;5.67;;;11.10;1.00;;;;;;5071759;28;20468;-78
2022/04/21 05:56:19;;;;;;;6.00;5.50;;;11.10;1.00;;;;;;5070778;28;20450;-80
2022/04/21 05:58:47;;;;;;;6.60;5.87;;;11.20;1.00;;;;;;5068326;28;20969;-80
2022/04/21 06:01:15;;;;;;;5.93;5.33;;;11.10;1.00;;;;;;5064594;28;20447;-78
2022/04/21 06:03:45;;;;;;;6.43;5.83;;;11.20;1.00;;;;;;5069770;28;20778;-78
2022/04/21 06:06:13;;;;;;;6.60;5.80;;;11.30;1.00;;;;;;5065628;28;21008;-76
2022/04/21 06:08:42;;;;;;;7.70;5.40;;;11.40;1.00;;;;;;5060387;28;20475;-75
2022/04/21 06:11:11;;;;;;;5.83;5.17;;;11.40;1.00;;;;;;5059054;28;20460;-77
2022/04/21 06:13:41;;;;;;;7.27;6.40;;;11.50;1.00;;;;;;5057191;28;20480;-78
2022/04/21 06:16:09;;;;;;;6.00;5.27;;;11.60;1.00;;;;;;5063281;28;20550;-77
2022/04/21 06:18:37;;;;;;;6.53;5.90;;;11.80;1.00;;;;;;5068693;28;21485;-78
2022/04/21 06:21:07;;;;;;;7.00;6.00;;;11.90;1.00;;;;;;5068960;28;20795;-78
2022/04/21 06:23:36;;;;;;;7.83;6.60;;;12.20;1.00;;;;;;5069714;28;20459;-78
2022/04/21 06:26:04;;;;;;;7.83;7.00;;;12.50;1.00;;;;;;5061311;28;20489;-76
2022/04/21 06:28:34;;;;;;;8.50;7.70;;;12.70;1.00;;;;;;5059063;28;20448;-75
2022/04/21 06:31:03;;;;;;;9.60;7.90;;;13.00;1.00;;;;;;5058898;28;20452;-78
2022/04/21 06:33:32;;;;;;;7.47;6.63;;;13.20;1.00;;;;;;5070764;28;20486;-76
2022/04/21 06:36:02;;;;;;;8.90;8.00;;;13.40;1.00;;;;;;5066075;28;20462;-77
2022/04/21 06:38:31;;;;;;;8.43;7.63;;;13.70;1.00;;;;;;5059302;28;20444;-77
2022/04/21 06:41:01;;;;;;;7.60;6.80;;;13.90;1.00;;;;;;5067967;28;20455;-75
2022/04/21 06:49:01;;;;;;;8.60;7.80;;;14.50;1.00;;;;;;5065524;28;20445;-74
2022/04/21 06:51:30;;;;;;;7.70;7.00;;;14.70;1.00;;;;;;5059113;28;20457;-78
2022/04/21 06:54:00;;;;;;;7.50;6.70;;;14.80;1.00;;;;;;5063038;28;20461;-76
2022/04/21 06:56:28;;;;;;;7.20;6.30;;;14.90;1.00;;;;;;5069328;28;20467;-77
2022/04/21 06:58:56;;;;;;;8.70;6.23;;;15.10;1.00;;;;;;5071193;28;20465;-76
2022/04/21 07:01:25;;;;;;;6.63;5.93;;;15.20;1.00;;;;;;5065722;28;20446;-77
2022/04/21 07:03:53;;;;;;;6.30;5.63;;;15.30;1.00;;;;;;5068514;28;21229;-79
2022/04/21 07:06:21;;;;;;;6.77;6.13;;;15.50;1.00;;;;;;5063977;28;20500;-77
2022/04/21 07:08:50;;;;;;;6.53;5.93;;;15.70;1.00;;;;;;5062837;28;20557;-77
2022/04/21 07:11:22;;;;;;;6.47;5.87;;;15.90;1.00;;;;;;5068358;28;20457;-77
2022/04/21 07:13:51;;;;;;;8.63;5.60;;;16.00;1.00;;;;;;5060564;28;20450;-78
2022/04/21 07:16:21;;;;;;;6.27;5.20;;;16.10;1.00;;;;;;5068641;28;20568;-79
2022/04/21 07:18:50;;;;;;;8.70;6.27;;;16.20;1.00;;;;;;5067460;28;20490;-77
2022/04/21 07:21:18;;;;;;;6.23;5.73;;;16.30;1.00;;;;;;5058733;28;20892;-79
2022/04/21 07:23:46;;;;;;;7.63;7.03;;;16.40;1.00;;;;;;5062269;28;20452;-77
2022/04/21 07:26:15;;;;;;;5.63;5.07;;;16.50;1.00;;;;;;5100294;28;20485;-78
2022/04/21 07:28:45;;;;;;;6.77;6.07;;;16.60;1.00;;;;;;5071063;28;20469;-77
2022/04/21 07:31:13;;;;;;;7.37;5.90;;;16.70;1.00;;;;;;5071144;28;20457;-76
2022/04/21 07:33:42;;;;;;;7.33;6.50;;;16.80;1.00;;;;;;5070647;28;20460;-78
2022/04/21 07:36:11;;;;;;;7.10;5.70;;;16.80;1.00;;;;;;5061754;28;21020;-77
2022/04/21 07:38:40;;;;;;;8.10;5.00;;;16.70;1.00;;;;;;5065979;28;20485;-74
2022/04/21 07:41:09;;;;;;;6.10;5.47;;;16.80;1.00;;;;;;5071068;28;20512;-77
2022/04/21 07:43:42;;;;;;;5.90;5.40;;;16.80;1.00;;;;;;5068934;28;20478;-79
2022/04/21 07:46:12;;;;;;;6.90;6.30;;;16.90;1.00;;;;;;5070157;28;20459;-77
2022/04/21 07:51:27;;;;;;;5.53;4.97;;;17.00;1.00;;;;;;5062379;28;21184;-78
2022/04/21 07:53:54;;;;;;;6.10;5.50;;;17.00;1.00;;;;;;5074391;28;20489;-78
2022/04/21 07:56:22;;;;;;;7.00;6.00;;;17.10;1.00;;;;;;5073910;28;20471;-79
2022/04/21 07:58:51;;;;;;;7.57;6.77;;;17.00;1.00;;;;;;5075289;28;20485;-79
2022/04/21 08:01:21;;;;;;;6.37;5.77;;;16.90;1.00;;;;;;5074754;28;20457;-78
2022/04/21 08:03:50;;;;;;;5.73;5.23;;;16.80;1.00;;;;;;5068763;28;20519;-78
2022/04/21 08:06:18;;;;;;;6.77;5.47;;;16.70;1.00;;;;;;5073145;28;20985;-78
2022/04/21 08:08:47;;;;;;;5.93;5.33;;;16.70;1.00;;;;;;5073029;28;20446;-79
2022/04/21 08:11:15;;;;;;;9.13;6.27;;;16.80;1.00;;;;;;5074094;28;20454;-78
2022/04/21 08:13:44;;;;;;;7.93;6.57;;;16.80;1.00;;;;;;5074228;28;20462;-80
2022/04/21 08:16:12;;;;;;;7.83;5.40;;;16.90;1.00;;;;;;5073892;28;20518;-77
2022/04/21 08:18:42;;;;;;;4.70;4.30;;;16.90;1.00;;;;;;5074008;28;20449;-79
2022/04/21 08:21:10;;;;;;;5.30;4.80;;;16.90;1.00;;;;;;5071826;28;20797;-77
2022/04/21 08:32:33;;;;;;;5.17;4.60;;;16.90;1.00;;;;;;5073471;28;20508;-79
2022/04/21 08:32:56;;;;;;;6.47;5.87;;;16.40;1.00;;;;;;5052812;28;20474;-78
2022/04/21 08:35:26;;;;;;;9.40;6.80;;;16.10;1.00;;;;;;5072616;28;20940;-78
2022/04/21 08:37:54;;;;;;;6.83;6.13;;;16.10;1.00;;;;;;5073558;28;20476;-77
2022/04/21 08:40:24;;;;;;;7.00;6.30;;;15.90;1.00;;;;;;5070121;28;20449;-78
2022/04/21 08:42:55;;;;;;;6.83;6.23;;;15.80;1.00;;;;;;5073660;28;20565;-79
2022/04/21 08:45:24;;;;;;;7.13;6.40;;;15.90;1.00;;;;;;5070370;28;20448;-78
2022/04/21 08:47:59;;;;;;;9.40;6.63;;;16.00;1.00;;;;;;5075182;28;20481;-78
2022/04/21 08:50:29;;;;;;;8.73;7.17;;;16.10;1.00;;;;;;5073259;28;20518;-78
2022/04/21 08:52:58;;;;;;;7.70;6.90;;;16.00;1.00;;;;;;5069447;28;20469;-75
2022/04/21 08:55:27;;;;;;;7.40;6.70;;;16.20;1.00;;;;;;5064728;28;21086;-75
2022/04/21 08:57:56;;;;;;;6.63;5.93;;;16.30;1.00;;;;;;5065382;28;20561;-75
2022/04/21 09:00:25;;;;;;;6.33;5.80;;;16.40;1.00;;;;;;5064847;28;20485;-77
2022/04/21 09:02:53;;;;;;;7.47;6.47;;;16.50;1.00;;;;;;5065528;28;20451;-76
2022/04/21 09:05:23;;;;;;;6.93;6.23;;;16.50;1.00;;;;;;5063290;28;20453;-75
2022/04/21 09:07:53;;;;;;;7.40;6.70;;;16.60;1.00;;;;;;5060332;28;20943;-75
2022/04/21 09:10:42;;;;;;;6.17;5.57;;;16.60;1.00;;;;;;5071214;28;20446;-75
2022/04/21 09:13:10;;;;;;;5.40;4.87;;;16.60;1.00;;;;;;5060673;28;20470;-75
2022/04/21 09:15:43;;;;;;;6.37;5.33;;;16.70;1.00;;;;;;5055677;28;20462;-76
2022/04/21 09:18:13;;;;;;;6.07;5.47;;;16.80;1.00;;;;;;5060344;28;20426;-80
2022/04/21 09:20:41;;;;;;;6.70;5.77;;;16.90;1.00;;;;;;5068653;28;20251;-81
2022/04/21 09:23:12;;;;;;;5.87;5.10;;;16.90;1.00;;;;;;5076592;28;20462;-80
2022/04/21 09:25:48;;;;;;;6.53;5.80;;;16.80;1.00;;;;;;5065005;28;20466;-78
2022/04/21 09:28:24;;;;;;;5.43;4.93;;;16.80;1.00;;;;;;5067304;28;20481;-79
2022/04/21 09:30:53;;;;;;;5.57;4.80;;;16.80;1.00;;;;;;5061082;28;20485;-80
2022/04/21 09:33:28;;;;;;;5.90;4.33;;;16.90;1.00;;;;;;5066235;28;20435;-79
2022/04/21 09:35:58;;;;;;;5.67;5.17;;;17.00;1.00;;;;;;5070456;28;20453;-80
2022/04/21 09:38:28;;;;;;;7.83;6.00;;;17.20;1.00;;;;;;5072232;28;20458;-79
2022/04/21 09:40:56;;;;;;;7.70;6.37;;;17.10;1.00;;;;;;5068453;28;20459;-76
2022/04/21 09:43:29;;;;;;;7.00;6.30;;;16.90;1.00;;;;;;5069009;28;20441;-79
2022/04/21 09:46:11;;;;;;;7.43;6.10;;;17.00;1.00;;;;;;5067956;28;20458;-78
2022/04/21 09:48:40;;;;;;;5.20;4.70;;;17.00;1.00;;;;;;5071447;28;20898;-79
2022/04/21 09:51:11;;;;;;;8.13;4.40;;;17.10;1.00;;;;;;5071369;28;20978;-79
2022/04/21 09:53:52;;;;;;;5.00;4.30;;;17.20;1.00;;;;;;5068706;28;20507;-79
2022/04/21 09:56:31;;;;;;;4.80;4.30;;;17.30;1.00;;;;;;5063620;28;20853;-80
2022/04/21 09:59:00;;;;;;;4.23;3.83;;;17.30;1.00;;;;;;5067352;28;20473;-79
2022/04/21 10:01:29;;;;;;;5.23;4.37;;;17.40;1.00;;;;;;5066339;28;20553;-80
2022/04/21 10:03:58;;;;;;;4.77;4.23;;;17.50;1.00;;;;;;5069162;28;20467;-79
2022/04/21 10:06:27;;;;;;;4.27;3.80;;;17.50;1.00;;;;;;5068639;28;20476;-79
2022/04/21 10:08:58;;;;;;;4.50;4.10;;;17.60;1.00;;;;;;5072132;28;20470;-80
2022/04/21 10:11:27;;;;;;;6.70;3.90;;;17.60;1.00;;;;;;5069601;28;20493;-77
2022/04/21 10:13:57;;;;;;;6.10;4.47;;;17.70;1.00;;;;;;5071647;28;20449;-79
2022/04/21 10:16:28;;;;;;;4.73;4.33;;;17.70;1.00;;;;;;5066467;28;20482;-79
2022/04/21 10:18:59;;;;;;;5.60;5.10;;;17.60;1.00;;;;;;5071207;28;20485;-79
2022/04/21 10:21:31;;;;;;;6.00;5.50;;;17.60;1.00;;;;;;5068252;28;20965;-78
2022/04/21 10:24:01;;;;;;;5.33;3.90;;;17.40;1.00;;;;;;5069184;28;20464;-80
2022/04/21 10:26:40;;;;;;;4.93;4.30;;;17.40;1.00;;;;;;5060955;28;20484;-78
2022/04/21 10:29:12;;;;;;;4.43;3.63;;;17.50;1.00;;;;;;5068171;28;20482;-77
2022/04/21 10:31:51;;;;;;;3.83;3.50;;;17.60;1.00;;;;;;5067979;28;20447;-78
2022/04/21 10:34:34;;;;;;;4.33;3.93;;;17.70;1.00;;;;;;5070138;28;20803;-78
2022/04/21 10:37:11;;;;;;;4.10;3.80;;;17.80;1.00;;;;;;5056772;28;21245;-79
2022/04/21 10:40:01;;;;;;;4.13;3.00;;;17.90;1.00;;;;;;5075482;28;21163;-78
2022/04/21 10:42:30;;;;;;;5.50;4.53;;;17.90;1.00;;;;;;5069733;28;20467;-78
2022/04/21 10:44:59;;;;;;;5.80;5.30;;;17.90;1.00;;;;;;5057411;28;20472;-77
2022/04/21 10:47:32;;;;;;;5.50;5.00;;;17.90;1.00;;;;;;5074428;28;20511;-77
2022/04/21 10:50:01;;;;;;;4.73;3.67;;;17.90;1.00;;;;;;5067662;28;20977;-78
2022/04/21 10:58:50;;;;;;;6.60;4.60;;;18.00;1.00;;;;;;5071118;28;20480;-80
2022/04/21 11:01:28;;;;;;;4.00;3.70;;;18.00;1.00;;;;;;5069307;28;20452;-79
2022/04/21 11:04:22;;;;;;;4.47;4.17;;;18.10;1.00;;;;;;5071078;28;20477;-79
2022/04/21 11:07:07;;;;;;;4.27;3.97;;;18.10;1.00;;;;;;5060690;28;21036;-79
2022/04/21 11:09:37;;;;;;;3.93;3.63;;;18.30;1.00;;;;;;5054626;28;20485;-79
2022/04/21 11:12:49;;;;;;;3.70;3.40;;;18.30;1.00;;;;;;5069550;28;20446;-79
2022/04/21 11:15:36;;;;;;;10.10;5.73;;;18.40;1.00;;;;;;5069483;28;20901;-79
2022/04/21 11:18:08;;;;;;;4.70;4.23;;;18.40;1.00;;;;;;5070119;28;20501;-79
2022/04/21 11:20:37;;;;;;;3.17;2.97;;;18.30;1.00;;;;;;5057037;28;20451;-77
2022/04/21 11:23:08;;;;;;;5.03;4.27;;;18.30;1.00;;;;;;5069213;28;20449;-79
2022/04/21 11:25:37;;;;;;;5.23;3.83;;;18.30;1.00;;;;;;5074081;28;20530;-79
2022/04/21 11:28:07;;;;;;;4.57;4.17;;;18.30;1.00;;;;;;5073224;28;20980;-80
2022/04/21 11:30:35;;;;;;;4.10;3.80;;;18.30;1.00;;;;;;5074648;28;20456;-77
2022/04/21 11:33:10;;;;;;;5.03;4.20;;;18.20;1.00;;;;;;5073120;28;20459;-80
2022/04/21 11:35:39;;;;;;;4.90;4.10;;;18.30;1.00;;;;;;5065277;28;20874;-80
2022/04/21 11:38:07;;;;;;;4.07;3.70;;;18.30;1.90;;;;;;5073196;28;20460;-78
2022/04/21 11:40:37;;;;;;;2.93;2.70;;;18.50;2.50;;;;;;5079574;28;20985;-79
2022/04/21 11:43:15;;;;;;;3.67;3.37;;;18.50;1.40;;;;;;5075337;28;20522;-79
2022/04/21 11:45:55;;;;;;;4.20;3.90;;;18.50;1.10;;;;;;5073980;28;20449;-79
2022/04/21 11:48:30;;;;;;;3.37;3.07;;;18.40;1.00;;;;;;5078158;28;20539;-78
2022/04/21 11:50:59;;;;;;;3.60;3.30;;;18.40;1.00;;;;;;5066261;28;20503;-79
2022/04/21 11:53:29;;;;;;;2.90;2.70;;;18.40;1.40;;;;;;5075018;28;20453;-79
2022/04/21 11:55:57;;;;;;;4.00;3.50;;;18.50;1.00;;;;;;5071572;28;20450;-79
2022/04/21 11:58:31;;;;;;;4.30;3.90;;;18.50;1.00;;;;;;5073097;28;20496;-78
2022/04/21 12:06:38;;;;;;;3.50;3.20;;;18.50;1.60;;;;;;5063173;28;20547;-75
2022/04/21 12:09:08;;;;;;;3.53;3.33;;;18.50;1.30;;;;;;5073871;28;20482;-79
2022/04/21 12:11:37;;;;;;;3.67;3.37;;;18.50;1.00;;;;;;5070235;28;20453;-79
2022/04/21 12:14:07;;;;;;;3.57;2.93;;;18.60;2.50;;;;;;5072104;28;20450;-80
2022/04/21 12:16:41;;;;;;;3.07;2.77;;;18.60;2.50;;;;;;5072128;28;20477;-79
2022/04/21 12:19:18;;;;;;;3.37;3.07;;;18.50;1.00;;;;;;5073441;28;20449;-80
2022/04/21 12:21:56;;;;;;;2.87;2.57;;;18.40;1.00;;;;;;5070669;28;20941;-79
2022/04/21 12:24:30;;;;;;;2.83;2.33;;;18.50;1.30;;;;;;5073399;28;20445;-80
2022/04/21 12:27:00;;;;;;;3.67;2.83;;;18.60;3.10;;;;;;5066608;28;20495;-79
2022/04/21 12:29:31;;;;;;;2.13;1.93;;;18.70;3.50;;;;;;5074225;28;20469;-79
2022/04/21 12:32:05;;;;;;;2.67;2.47;;;18.70;3.20;;;;;;5070097;28;20983;-80
2022/04/21 12:34:40;;;;;;;2.70;2.50;;;18.70;2.70;;;;;;5071751;28;20578;-80
2022/04/21 12:37:09;;;;;;;1.87;1.77;;;18.70;3.20;;;;;;5070593;28;20473;-78
2022/04/21 12:39:38;;;;;;;1.80;1.70;;;18.80;4.50;;;;;;5070766;28;20457;-79
2022/04/21 12:42:27;;;;;;;2.17;1.67;;;18.90;5.90;;;;;;5073744;28;20922;-79
2022/04/21 12:44:58;;;;;;;1.83;1.73;;;19.00;6.70;;;;;;5065787;28;20451;-79
2022/04/21 12:47:27;;;;;;;1.60;1.50;;;19.00;5.00;;;;;;5062529;28;20455;-79
2022/04/21 12:50:00;;;;;;;1.70;1.53;;;19.00;3.60;;;;;;5072942;28;20470;-80
2022/04/21 12:52:33;;;;;;;1.50;1.30;;;19.00;4.10;;;;;;5076556;28;20465;-79
2022/04/21 12:55:04;;;;;;;1.53;1.43;;;18.90;3.20;;;;;;5068830;28;20464;-80
2022/04/21 12:57:32;;;;;;;1.60;1.47;;;18.90;3.40;;;;;;5069802;28;20861;-80
2022/04/21 13:00:03;;;;;;;1.33;1.20;;;18.90;5.60;;;;;;5069122;28;20979;-77
2022/04/21 13:02:31;;;;;;;1.63;1.10;;;18.90;3.90;;;;;;5069042;28;20562;-81
2022/04/21 13:05:00;;;;;;;1.40;1.27;;;18.90;17.10;;;;;;5069802;28;20459;-80
2022/04/21 13:07:30;;;;;;;1.30;1.20;;;19.00;6.10;;;;;;5071920;28;20468;-79
2022/04/21 13:09:59;;;;;;;1.40;1.27;;;19.00;5.40;;;;;;5066644;28;20479;-79
2022/04/21 13:12:28;;;;;;;1.67;1.10;;;19.10;4.90;;;;;;5072843;28;20451;-77
2022/04/21 13:14:56;;;;;;;1.30;1.20;;;19.10;5.60;;;;;;5076072;28;20446;-79
2022/04/21 13:17:26;;;;;;;0.73;0.73;;;19.10;6.50;;;;;;5075208;28;20818;-79
2022/04/21 13:19:54;;;;;;;0.90;0.90;;;19.10;5.00;;;;;;5068940;28;20451;-82
2022/04/21 13:22:21;;;;;;;1.00;1.00;;;19.20;6.60;;;;;;5067293;28;20451;-80
2022/04/21 13:24:50;;;;;;;2.80;0.90;;;19.30;9.50;;;;;;5065933;28;20459;-78
2022/04/21 13:27:21;;;;;;;1.23;0.80;;;19.40;7.10;;;;;;5077066;28;20485;-79
2022/04/21 13:29:50;;;;;;;0.80;0.80;;;19.30;4.60;;;;;;5076392;28;20568;-77
2022/04/21 13:35:07;;;;;;;0.90;0.90;;;19.20;3.50;;;;;;5074404;28;20446;-81
2022/04/21 13:37:35;;;;;;;1.30;1.00;;;19.10;1.60;;;;;;5070895;28;20477;-83
2022/04/21 13:40:04;;;;;;;1.17;1.07;;;19.10;4.00;;;;;;5068071;28;20451;-82
2022/04/21 13:42:32;;;;;;;1.00;1.00;;;19.20;3.80;;;;;;5065611;28;20807;-82
2022/04/21 13:45:00;;;;;;;1.57;1.10;;;19.40;6.70;;;;;;5064714;28;20438;-81
2022/04/21 13:47:48;;;;;;;1.17;1.07;;;19.50;11.70;;;;;;5097448;27;20474;-81
2022/04/21 13:50:18;;;;;;;1.00;0.73;;;19.50;8.70;;;;;;5066792;28;20524;-81
2022/04/21 13:52:46;;;;;;;1.33;0.90;;;19.60;7.90;;;;;;5065395;28;20450;-82
2022/04/21 13:55:14;;;;;;;1.10;1.00;;;19.60;6.70;;;;;;5068570;28;20462;-78
2022/04/21 13:57:43;;;;;;;2.30;1.10;;;19.50;6.50;;;;;;5070520;28;20481;-79
2022/04/21 14:00:12;;;;;;;1.13;1.03;;;19.40;5.60;;;;;;5071799;28;20809;-79
2022/04/21 14:02:40;;;;;;;0.83;0.83;;;19.40;5.30;;;;;;5070721;28;20451;-79